sensor_id;sensor_type;location;lat;lon;timestamp;P1;durP1;ratioP1;P2;durP2;ratioP2
10440;SDS011;5268;49.346;9.522;2022-07-29T03:23:22;8.57;;;4.35;;
10440;SDS011;5268;49.346;9.522;2022-07-29T03:28:26;5.35;;;4.28;;
10440;SDS011;5268;49.346;9.522;2022-07-29T03:33:28;5.80;;;3.95;;
10440;SDS011;5268;49.346;9.522;2022-07-29T03:38:32;5.72;;;3.80;;
10440;SDS011;5268;49.346;9.522;2022-07-29T03:43:37;4.30;;;3.72;;
10440;SDS011;5268;49.346;9.522;2022-07-29T03:48:41;4.20;;;3.75;;
10440;SDS011;5268;49.346;9.522;2022-07-29T03:53:49;4.75;;;4.00;;
10440;SDS011;5268;49.346;9.522;2022-07-29T03:58:51;5.88;;;3.80;;
10440;SDS011;5268;49.346;9.522;2022-07-29T04:03:54;5.07;;;4.00;;
10440;SDS011;5268;49.346;9.522;2022-07-29T04:08:58;6.80;;;4.30;;
10440;SDS011;5268;49.346;9.522;2022-07-29T04:14:00;6.70;;;4.57;;
10440;SDS011;5268;49.346;9.522;2022-07-29T04:19:02;5.20;;;4.13;;
10440;SDS011;5268;49.346;9.522;2022-07-29T04:24:06;7.47;;;4.45;;
10440;SDS011;5268;49.346;9.522;2022-07-29T04:29:09;4.72;;;4.13;;
10440;SDS011;5268;49.346;9.522;2022-07-29T04:34:12;5.43;;;3.90;;
10440;SDS011;5268;49.346;9.522;2022-07-29T04:39:15;5.18;;;4.10;;
10440;SDS011;5268;49.346;9.522;2022-07-29T04:44:18;4.88;;;3.83;;
10440;SDS011;5268;49.346;9.522;2022-07-29T04:49:20;6.03;;;3.97;;
10440;SDS011;5268;49.346;9.522;2022-07-29T04:54:24;8.88;;;6.22;;
10440;SDS011;5268;49.346;9.522;2022-07-29T04:59:26;7.57;;;5.32;;
10440;SDS011;5268;49.346;9.522;2022-07-29T05:04:28;10.05;;;6.10;;
10440;SDS011;5268;49.346;9.522;2022-07-29T05:09:31;12.25;;;7.32;;
10440;SDS011;5268;49.346;9.522;2022-07-29T05:14:33;9.68;;;6.78;;
10440;SDS011;5268;49.346;9.522;2022-07-29T05:19:35;7.57;;;4.70;;
10440;SDS011;5268;49.346;9.522;2022-07-29T05:24:39;6.82;;;5.47;;
10440;SDS011;5268;49.346;9.522;2022-07-29T05:29:41;7.70;;;4.90;;
10440;SDS011;5268;49.346;9.522;2022-07-29T05:34:43;6.90;;;4.60;;
10440;SDS011;5268;49.346;9.522;2022-07-29T05:39:47;8.73;;;4.70;;
10440;SDS011;5268;49.346;9.522;2022-07-29T05:44:49;6.95;;;4.32;;
10440;SDS011;5268;49.346;9.522;2022-07-29T05:49:51;4.80;;;4.30;;
10440;SDS011;5268;49.346;9.522;2022-07-29T05:54:55;11.80;;;4.28;;
10440;SDS011;5268;49.346;9.522;2022-07-29T05:59:57;4.97;;;3.75;;
10440;SDS011;5268;49.346;9.522;2022-07-29T06:04:59;5.88;;;4.13;;
10440;SDS011;5268;49.346;9.522;2022-07-29T06:10:03;7.53;;;4.53;;
10440;SDS011;5268;49.346;9.522;2022-07-29T06:15:06;6.57;;;4.30;;
10440;SDS011;5268;49.346;9.522;2022-07-29T06:20:09;5.05;;;4.13;;
10440;SDS011;5268;49.346;9.522;2022-07-29T06:25:13;7.28;;;4.13;;
10440;SDS011;5268;49.346;9.522;2022-07-29T06:30:16;5.28;;;3.83;;
10440;SDS011;5268;49.346;9.522;2022-07-29T06:35:18;4.55;;;4.05;;
10440;SDS011;5268;49.346;9.522;2022-07-29T06:40:22;4.78;;;3.78;;
10440;SDS011;5268;49.346;9.522;2022-07-29T06:45:41;6.53;;;4.22;;
10440;SDS011;5268;49.346;9.522;2022-07-29T06:50:43;4.90;;;4.10;;
10440;SDS011;5268;49.346;9.522;2022-07-29T06:55:47;5.43;;;4.15;;
10440;SDS011;5268;49.346;9.522;2022-07-29T07:00:49;6.80;;;4.20;;
10440;SDS011;5268;49.346;9.522;2022-07-29T07:05:52;6.68;;;4.55;;
10440;SDS011;5268;49.346;9.522;2022-07-29T07:10:55;7.05;;;4.30;;
10440;SDS011;5268;49.346;9.522;2022-07-29T07:15:58;6.95;;;3.90;;
10440;SDS011;5268;49.346;9.522;2022-07-29T07:21:00;6.55;;;3.70;;
10440;SDS011;5268;49.346;9.522;2022-07-29T07:26:03;4.28;;;3.50;;
10440;SDS011;5268;49.346;9.522;2022-07-29T07:31:06;5.38;;;3.83;;
10440;SDS011;5268;49.346;9.522;2022-07-29T07:36:08;5.85;;;4.18;;
10440;SDS011;5268;49.346;9.522;2022-07-29T07:41:12;5.65;;;3.13;;
10440;SDS011;5268;49.346;9.522;2022-07-29T07:46:14;7.75;;;4.00;;
10440;SDS011;5268;49.346;9.522;2022-07-29T07:51:16;4.25;;;3.60;;
10440;SDS011;5268;49.346;9.522;2022-07-29T07:56:20;5.63;;;3.95;;
10440;SDS011;5268;49.346;9.522;2022-07-29T08:01:22;5.50;;;3.83;;
10440;SDS011;5268;49.346;9.522;2022-07-29T08:06:24;6.93;;;3.60;;
10440;SDS011;5268;49.346;9.522;2022-07-29T08:11:27;5.80;;;3.50;;
10440;SDS011;5268;49.346;9.522;2022-07-29T08:16:29;5.25;;;3.40;;
10440;SDS011;5268;49.346;9.522;2022-07-29T08:21:31;4.57;;;3.47;;
10440;SDS011;5268;49.346;9.522;2022-07-29T08:26:35;4.38;;;3.22;;
10440;SDS011;5268;49.346;9.522;2022-07-29T08:31:37;3.97;;;3.40;;
10440;SDS011;5268;49.346;9.522;2022-07-29T08:36:40;5.07;;;3.40;;
10440;SDS011;5268;49.346;9.522;2022-07-29T08:41:43;4.07;;;2.90;;
10440;SDS011;5268;49.346;9.522;2022-07-29T08:46:46;5.05;;;3.10;;
10440;SDS011;5268;49.346;9.522;2022-07-29T08:51:48;3.78;;;2.95;;
10440;SDS011;5268;49.346;9.522;2022-07-29T08:56:52;4.68;;;3.30;;
10440;SDS011;5268;49.346;9.522;2022-07-29T09:01:54;3.53;;;2.95;;
10440;SDS011;5268;49.346;9.522;2022-07-29T09:07:00;3.50;;;3.17;;
10440;SDS011;5268;49.346;9.522;2022-07-29T09:12:07;4.53;;;2.92;;
10440;SDS011;5268;49.346;9.522;2022-07-29T09:17:11;5.00;;;3.40;;
10440;SDS011;5268;49.346;9.522;2022-07-29T09:22:13;4.22;;;3.20;;
10440;SDS011;5268;49.346;9.522;2022-07-29T09:27:33;5.15;;;3.20;;
10440;SDS011;5268;49.346;9.522;2022-07-29T09:37:56;3.50;;;3.20;;
10440;SDS011;5268;49.346;9.522;2022-07-29T09:43:00;4.20;;;3.25;;
10440;SDS011;5268;49.346;9.522;2022-07-29T09:48:14;4.35;;;3.30;;
10440;SDS011;5268;49.346;9.522;2022-07-29T09:53:30;4.07;;;3.67;;
10440;SDS011;5268;49.346;9.522;2022-07-29T09:58:35;3.40;;;3.10;;
10440;SDS011;5268;49.346;9.522;2022-07-29T10:03:49;4.05;;;3.65;;
10440;SDS011;5268;49.346;9.522;2022-07-29T10:08:52;5.15;;;3.60;;
10440;SDS011;5268;49.346;9.522;2022-07-29T10:13:56;4.20;;;3.80;;
10440;SDS011;5268;49.346;9.522;2022-07-29T10:18:58;3.65;;;3.35;;
10440;SDS011;5268;49.346;9.522;2022-07-29T10:24:01;4.88;;;3.53;;
10440;SDS011;5268;49.346;9.522;2022-07-29T10:29:04;4.10;;;3.80;;
10440;SDS011;5268;49.346;9.522;2022-07-29T10:34:07;4.68;;;3.50;;
10440;SDS011;5268;49.346;9.522;2022-07-29T10:39:20;3.72;;;3.38;;
10440;SDS011;5268;49.346;9.522;2022-07-29T10:44:35;6.50;;;3.70;;
10440;SDS011;5268;49.346;9.522;2022-07-29T10:49:41;4.28;;;3.83;;
10440;SDS011;5268;49.346;9.522;2022-07-29T10:54:57;3.90;;;3.50;;
10440;SDS011;5268;49.346;9.522;2022-07-29T11:05:41;6.72;;;3.70;;
10440;SDS011;5268;49.346;9.522;2022-07-29T11:22:08;3.80;;;3.42;;
10440;SDS011;5268;49.346;9.522;2022-07-29T11:27:13;4.18;;;3.78;;
10440;SDS011;5268;49.346;9.522;2022-07-29T11:32:18;4.35;;;3.95;;
10440;SDS011;5268;49.346;9.522;2022-07-29T11:37:21;5.15;;;4.32;;
10440;SDS011;5268;49.346;9.522;2022-07-29T11:42:37;4.15;;;3.85;;
10440;SDS011;5268;49.346;9.522;2022-07-29T11:47:49;4.72;;;4.10;;
10440;SDS011;5268;49.346;9.522;2022-07-29T11:52:53;4.43;;;3.95;;
10440;SDS011;5268;49.346;9.522;2022-07-29T11:57:56;6.30;;;4.38;;
10440;SDS011;5268;49.346;9.522;2022-07-29T12:03:01;4.57;;;4.18;;
10440;SDS011;5268;49.346;9.522;2022-07-29T12:08:05;6.78;;;4.28;;
10440;SDS011;5268;49.346;9.522;2022-07-29T12:13:09;5.80;;;4.50;;
10440;SDS011;5268;49.346;9.522;2022-07-29T12:18:14;6.35;;;4.75;;
10440;SDS011;5268;49.346;9.522;2022-07-29T12:23:18;4.70;;;4.30;;
10440;SDS011;5268;49.346;9.522;2022-07-29T12:28:21;4.57;;;4.05;;
10440;SDS011;5268;49.346;9.522;2022-07-29T12:33:26;8.70;;;4.38;;
10440;SDS011;5268;49.346;9.522;2022-07-29T12:38:30;6.50;;;4.13;;
10440;SDS011;5268;49.346;9.522;2022-07-29T12:43:33;7.88;;;4.55;;
10440;SDS011;5268;49.346;9.522;2022-07-29T12:48:36;6.70;;;4.20;;
10440;SDS011;5268;49.346;9.522;2022-07-29T12:53:39;7.22;;;4.50;;
10440;SDS011;5268;49.346;9.522;2022-07-29T12:58:41;4.80;;;4.25;;
10440;SDS011;5268;49.346;9.522;2022-07-29T13:03:46;4.93;;;4.15;;
10440;SDS011;5268;49.346;9.522;2022-07-29T13:08:58;4.80;;;4.40;;
10440;SDS011;5268;49.346;9.522;2022-07-29T13:14:01;5.22;;;4.40;;
10440;SDS011;5268;49.346;9.522;2022-07-29T13:19:09;5.90;;;4.85;;
10440;SDS011;5268;49.346;9.522;2022-07-29T13:24:12;6.25;;;4.22;;
10440;SDS011;5268;49.346;9.522;2022-07-29T13:29:14;7.35;;;4.18;;
10440;SDS011;5268;49.346;9.522;2022-07-29T13:34:17;3.97;;;3.60;;
10440;SDS011;5268;49.346;9.522;2022-07-29T13:39:20;4.55;;;4.05;;
10440;SDS011;5268;49.346;9.522;2022-07-29T13:44:22;3.10;;;2.53;;
10440;SDS011;5268;49.346;9.522;2022-07-29T13:49:27;2.47;;;2.08;;
10440;SDS011;5268;49.346;9.522;2022-07-29T13:54:29;5.38;;;2.47;;
10440;SDS011;5268;49.346;9.522;2022-07-29T13:59:31;3.00;;;2.08;;
10440;SDS011;5268;49.346;9.522;2022-07-29T14:04:34;3.95;;;2.50;;
10440;SDS011;5268;49.346;9.522;2022-07-29T14:09:37;3.40;;;2.78;;
10440;SDS011;5268;49.346;9.522;2022-07-29T14:14:39;4.63;;;2.75;;
10440;SDS011;5268;49.346;9.522;2022-07-29T14:19:42;6.88;;;2.92;;
10440;SDS011;5268;49.346;9.522;2022-07-29T14:24:45;4.63;;;2.85;;
10440;SDS011;5268;49.346;9.522;2022-07-29T14:29:47;3.78;;;2.95;;
10440;SDS011;5268;49.346;9.522;2022-07-29T14:34:50;4.13;;;2.75;;
10440;SDS011;5268;49.346;9.522;2022-07-29T14:39:52;6.18;;;2.60;;
10440;SDS011;5268;49.346;9.522;2022-07-29T14:44:59;3.22;;;2.50;;
10440;SDS011;5268;49.346;9.522;2022-07-29T14:50:03;3.40;;;3.10;;
10440;SDS011;5268;49.346;9.522;2022-07-29T14:55:06;4.43;;;3.40;;
10440;SDS011;5268;49.346;9.522;2022-07-29T15:00:09;3.65;;;3.05;;
10440;SDS011;5268;49.346;9.522;2022-07-29T15:05:13;3.50;;;3.20;;
10440;SDS011;5268;49.346;9.522;2022-07-29T15:10:15;3.67;;;2.90;;
10440;SDS011;5268;49.346;9.522;2022-07-29T15:15:17;4.55;;;3.15;;
10440;SDS011;5268;49.346;9.522;2022-07-29T15:20:20;6.85;;;3.10;;
10440;SDS011;5268;49.346;9.522;2022-07-29T15:25:25;3.15;;;2.85;;
10440;SDS011;5268;49.346;9.522;2022-07-29T15:30:28;3.60;;;2.83;;
10440;SDS011;5268;49.346;9.522;2022-07-29T15:35:32;4.05;;;3.17;;
10440;SDS011;5268;49.346;9.522;2022-07-29T15:40:36;4.38;;;3.50;;
10440;SDS011;5268;49.346;9.522;2022-07-29T15:45:38;3.45;;;2.90;;
10440;SDS011;5268;49.346;9.522;2022-07-29T15:51:03;5.10;;;3.22;;
10440;SDS011;5268;49.346;9.522;2022-07-29T15:56:05;4.20;;;3.40;;
10440;SDS011;5268;49.346;9.522;2022-07-29T16:01:07;4.30;;;3.30;;
10440;SDS011;5268;49.346;9.522;2022-07-29T16:06:11;3.80;;;3.13;;
10440;SDS011;5268;49.346;9.522;2022-07-29T16:11:14;4.32;;;3.25;;
10440;SDS011;5268;49.346;9.522;2022-07-29T16:16:16;4.57;;;3.40;;
10440;SDS011;5268;49.346;9.522;2022-07-29T16:21:20;4.63;;;3.70;;
10440;SDS011;5268;49.346;9.522;2022-07-29T16:26:22;3.88;;;3.47;;
10440;SDS011;5268;49.346;9.522;2022-07-29T16:31:24;3.70;;;3.40;;
10440;SDS011;5268;49.346;9.522;2022-07-29T16:36:28;4.75;;;3.30;;
10440;SDS011;5268;49.346;9.522;2022-07-29T16:41:30;3.50;;;3.20;;
10440;SDS011;5268;49.346;9.522;2022-07-29T16:46:32;4.18;;;3.50;;
10440;SDS011;5268;49.346;9.522;2022-07-29T16:51:37;5.22;;;3.60;;
10440;SDS011;5268;49.346;9.522;2022-07-29T16:56:39;7.22;;;4.10;;
10440;SDS011;5268;49.346;9.522;2022-07-29T17:01:41;7.15;;;3.97;;
10440;SDS011;5268;49.346;9.522;2022-07-29T17:06:46;3.63;;;3.30;;
10440;SDS011;5268;49.346;9.522;2022-07-29T17:11:49;4.35;;;3.95;;
10440;SDS011;5268;49.346;9.522;2022-07-29T17:16:53;3.90;;;3.60;;
10440;SDS011;5268;49.346;9.522;2022-07-29T17:21:57;4.60;;;3.60;;
10440;SDS011;5268;49.346;9.522;2022-07-29T17:26:59;5.35;;;3.63;;
10440;SDS011;5268;49.346;9.522;2022-07-29T17:32:02;5.95;;;4.07;;
10440;SDS011;5268;49.346;9.522;2022-07-29T17:37:06;6.68;;;3.70;;
10440;SDS011;5268;49.346;9.522;2022-07-29T17:42:10;5.45;;;4.10;;
10440;SDS011;5268;49.346;9.522;2022-07-29T17:47:13;7.43;;;5.50;;
10440;SDS011;5268;49.346;9.522;2022-07-29T17:52:16;5.72;;;5.10;;
10440;SDS011;5268;49.346;9.522;2022-07-29T17:57:18;5.95;;;4.80;;
10440;SDS011;5268;49.346;9.522;2022-07-29T18:02:20;8.30;;;5.13;;
10440;SDS011;5268;49.346;9.522;2022-07-29T18:07:24;5.45;;;4.88;;
10440;SDS011;5268;49.346;9.522;2022-07-29T18:12:26;6.03;;;4.95;;
10440;SDS011;5268;49.346;9.522;2022-07-29T18:17:28;7.13;;;4.65;;
10440;SDS011;5268;49.346;9.522;2022-07-29T18:22:31;5.40;;;4.55;;
10440;SDS011;5268;49.346;9.522;2022-07-29T18:27:33;4.80;;;4.30;;
10440;SDS011;5268;49.346;9.522;2022-07-29T18:32:35;5.68;;;4.85;;
10440;SDS011;5268;49.346;9.522;2022-07-29T18:37:39;5.35;;;4.85;;
10440;SDS011;5268;49.346;9.522;2022-07-29T18:42:41;6.38;;;4.70;;
10440;SDS011;5268;49.346;9.522;2022-07-29T18:47:43;5.18;;;4.38;;
10440;SDS011;5268;49.346;9.522;2022-07-29T18:52:46;6.63;;;5.25;;
10440;SDS011;5268;49.346;9.522;2022-07-29T18:57:48;7.78;;;5.47;;
10440;SDS011;5268;49.346;9.522;2022-07-29T19:02:50;5.45;;;4.95;;
10440;SDS011;5268;49.346;9.522;2022-07-29T19:07:54;5.32;;;4.82;;
10440;SDS011;5268;49.346;9.522;2022-07-29T19:12:56;6.50;;;5.47;;
10440;SDS011;5268;49.346;9.522;2022-07-29T19:17:58;5.70;;;5.10;;
10440;SDS011;5268;49.346;9.522;2022-07-29T19:23:01;6.40;;;5.20;;
10440;SDS011;5268;49.346;9.522;2022-07-29T19:28:03;3.78;;;3.47;;
10440;SDS011;5268;49.346;9.522;2022-07-29T19:33:05;4.10;;;3.70;;
10440;SDS011;5268;49.346;9.522;2022-07-29T19:38:09;7.10;;;3.90;;
10440;SDS011;5268;49.346;9.522;2022-07-29T19:43:12;4.10;;;3.70;;
10440;SDS011;5268;49.346;9.522;2022-07-29T19:48:14;5.05;;;4.38;;
10440;SDS011;5268;49.346;9.522;2022-07-29T19:53:18;5.18;;;3.70;;
10440;SDS011;5268;49.346;9.522;2022-07-29T19:58:20;5.18;;;4.05;;
10440;SDS011;5268;49.346;9.522;2022-07-29T20:03:22;4.10;;;3.70;;
10440;SDS011;5268;49.346;9.522;2022-07-29T20:08:25;5.05;;;4.50;;
10440;SDS011;5268;49.346;9.522;2022-07-29T20:13:27;4.93;;;4.00;;
10440;SDS011;5268;49.346;9.522;2022-07-29T20:18:30;4.30;;;3.90;;
10440;SDS011;5268;49.346;9.522;2022-07-29T20:23:34;4.32;;;3.70;;
10440;SDS011;5268;49.346;9.522;2022-07-29T20:28:36;3.33;;;3.00;;
10440;SDS011;5268;49.346;9.522;2022-07-29T20:33:52;3.45;;;3.15;;
10440;SDS011;5268;49.346;9.522;2022-07-29T20:39:02;3.47;;;3.05;;
10440;SDS011;5268;49.346;9.522;2022-07-29T20:44:07;4.60;;;4.20;;
10440;SDS011;5268;49.346;9.522;2022-07-29T20:49:10;4.07;;;3.67;;
10440;SDS011;5268;49.346;9.522;2022-07-29T20:54:13;4.07;;;3.78;;
10440;SDS011;5268;49.346;9.522;2022-07-29T20:59:15;5.22;;;3.75;;
10440;SDS011;5268;49.346;9.522;2022-07-29T21:04:21;4.38;;;3.97;;
10440;SDS011;5268;49.346;9.522;2022-07-29T21:09:27;4.93;;;3.92;;
10440;SDS011;5268;49.346;9.522;2022-07-29T21:14:29;4.00;;;3.60;;
10440;SDS011;5268;49.346;9.522;2022-07-29T21:19:46;3.95;;;3.55;;
10440;SDS011;5268;49.346;9.522;2022-07-29T21:24:51;4.40;;;4.00;;
10440;SDS011;5268;49.346;9.522;2022-07-29T21:29:53;4.40;;;4.00;;
